Del Rio, TX

5:46 PM CST on November 25, 2014 (GMT -0600)
Avenue P, Del Rio, TX | Change Station
CLOSE
Current Station
Personal Weather Station
Location: Del Rio, TX
Elevation: 1014 ft
Nearby Weather Stations

Elev 1014 ft 29.38 °N, 100.91 °W | Updated 14 minutes ago

Clear
Clear
63.1 °F
Feels Like 63.1 °F
N
0.0
Wind Variable Wind from NW

Today
High -- | Low -- °F
--% Chance of Precip.
Yesterday
High -- | Low -- °F
Precip. -- in
7:15 AM 5:45 PM
Waxing Crescent, 14% visible
Pressure 30.22 in
Visibility 10.0 miles
Clouds Clear
Dew Point 31 °F
Humidity 30%
Rainfall 0.00 in
Snow Depth Not available.
UV 0 out of 12
Pollen 5.20 out of 12
Air Quality Not available.
Flu Activity Not available.
METAR KDRT 252253Z AUTO 30008KT 10SM CLR 18/M04 A3023 RMK AO2 SLP233 T01781044

More Conditions Fewer Conditions

Pressure 30.22 in
Visibility 10.0 miles
Clouds Clear
Dew Point 31 °F
Humidity 30%
Rainfall 0.00 in
Snow Depth Not available.
UV 0 out of 12
Pollen 5.20 out of 12
Air Quality Not available.
Flu Activity Not available.
METAR KDRT 252253Z AUTO 30008KT 10SM CLR 18/M04 A3023 RMK AO2 SLP233 T01781044

More Conditions Fewer Conditions

10-Day Weather Forecast

Almanac

Astronomy

Nov. 25, 2014 Rise Set
Actual Time
Civil Twilight
Nautical Twilight
Astronomical Twilight
Moon
Length of Visible Light
Length of Day
Tomorrow will be .
, % of the Moon is Illuminated

Today's Extremes

State Highs State Lows

Community

WunderPhotos

Upload Photos

1,773,624 photos uploaded!

WunderBlogs® & News

Nearby

Air Quality

  Air Quality AQ Index Pollutant
Not available.

Snow Depth

Station Depth Elevation

Earthquake Activity

City Distance Mag. Time & Date
Minimum magnitude displayed is 2.5.

Coastal Water Temperatures

Place Temperature

Nearby Weather Stations